sensor_id;sensor_type;location;lat;lon;timestamp;P1;durP1;ratioP1;P2;durP2;ratioP2
1977;SDS011;989;53.016;8.346;2024-02-21T00:00:20;21.73;;;10.50;;
1977;SDS011;989;53.016;8.346;2024-02-21T00:02:46;8.63;;;6.27;;
1977;SDS011;989;53.016;8.346;2024-02-21T00:05:11;12.93;;;8.13;;
1977;SDS011;989;53.016;8.346;2024-02-21T00:07:40;20.27;;;8.37;;
1977;SDS011;989;53.016;8.346;2024-02-21T00:10:06;9.13;;;7.57;;
1977;SDS011;989;53.016;8.346;2024-02-21T00:12:32;9.90;;;6.77;;
1977;SDS011;989;53.016;8.346;2024-02-21T00:14:57;10.10;;;6.37;;
1977;SDS011;989;53.016;8.346;2024-02-21T00:17:22;17.07;;;10.27;;
1977;SDS011;989;53.016;8.346;2024-02-21T00:19:48;15.37;;;8.30;;
1977;SDS011;989;53.016;8.346;2024-02-21T00:22:13;13.90;;;7.97;;
1977;SDS011;989;53.016;8.346;2024-02-21T00:24:39;15.73;;;7.90;;
1977;SDS011;989;53.016;8.346;2024-02-21T00:27:05;17.47;;;10.00;;
1977;SDS011;989;53.016;8.346;2024-02-21T00:29:30;23.33;;;9.83;;
1977;SDS011;989;53.016;8.346;2024-02-21T00:31:55;14.60;;;9.10;;
1977;SDS011;989;53.016;8.346;2024-02-21T00:34:21;17.93;;;9.90;;
1977;SDS011;989;53.016;8.346;2024-02-21T00:36:46;12.80;;;8.27;;
1977;SDS011;989;53.016;8.346;2024-02-21T00:39:12;17.10;;;8.60;;
1977;SDS011;989;53.016;8.346;2024-02-21T00:41:37;20.43;;;10.47;;
1977;SDS011;989;53.016;8.346;2024-02-21T00:44:02;11.27;;;7.87;;
1977;SDS011;989;53.016;8.346;2024-02-21T00:46:30;12.17;;;7.17;;
1977;SDS011;989;53.016;8.346;2024-02-21T00:48:56;17.87;;;10.10;;
1977;SDS011;989;53.016;8.346;2024-02-21T00:51:21;12.30;;;7.50;;
1977;SDS011;989;53.016;8.346;2024-02-21T00:53:46;17.63;;;9.00;;
1977;SDS011;989;53.016;8.346;2024-02-21T00:56:12;11.10;;;6.80;;
1977;SDS011;989;53.016;8.346;2024-02-21T00:58:37;14.13;;;8.63;;
1977;SDS011;989;53.016;8.346;2024-02-21T01:01:03;11.30;;;7.77;;
1977;SDS011;989;53.016;8.346;2024-02-21T01:03:28;11.50;;;6.20;;
1977;SDS011;989;53.016;8.346;2024-02-21T01:05:53;22.77;;;9.37;;
1977;SDS011;989;53.016;8.346;2024-02-21T01:08:19;15.37;;;7.80;;
1977;SDS011;989;53.016;8.346;2024-02-21T01:10:44;12.07;;;8.60;;
1977;SDS011;989;53.016;8.346;2024-02-21T01:13:09;14.63;;;8.73;;
1977;SDS011;989;53.016;8.346;2024-02-21T01:15:35;14.93;;;7.33;;
1977;SDS011;989;53.016;8.346;2024-02-21T01:18:01;13.33;;;7.37;;
1977;SDS011;989;53.016;8.346;2024-02-21T01:20:26;12.10;;;8.30;;
1977;SDS011;989;53.016;8.346;2024-02-21T01:22:52;13.20;;;8.40;;
1977;SDS011;989;53.016;8.346;2024-02-21T01:25:18;16.00;;;9.47;;
1977;SDS011;989;53.016;8.346;2024-02-21T01:27:43;15.03;;;8.50;;
1977;SDS011;989;53.016;8.346;2024-02-21T01:30:09;13.93;;;7.97;;
1977;SDS011;989;53.016;8.346;2024-02-21T01:32:35;16.70;;;5.30;;
1977;SDS011;989;53.016;8.346;2024-02-21T01:35:01;17.80;;;8.20;;
1977;SDS011;989;53.016;8.346;2024-02-21T01:37:26;18.37;;;9.37;;
1977;SDS011;989;53.016;8.346;2024-02-21T01:39:52;11.27;;;8.27;;
1977;SDS011;989;53.016;8.346;2024-02-21T01:42:18;16.63;;;8.97;;
1977;SDS011;989;53.016;8.346;2024-02-21T01:44:44;10.97;;;7.10;;
1977;SDS011;989;53.016;8.346;2024-02-21T01:47:10;11.83;;;7.73;;
1977;SDS011;989;53.016;8.346;2024-02-21T01:49:36;7.70;;;5.37;;
1977;SDS011;989;53.016;8.346;2024-02-21T01:52:01;14.87;;;8.83;;
1977;SDS011;989;53.016;8.346;2024-02-21T01:54:28;12.47;;;7.30;;
1977;SDS011;989;53.016;8.346;2024-02-21T01:56:53;18.60;;;8.83;;
1977;SDS011;989;53.016;8.346;2024-02-21T01:59:19;15.20;;;7.37;;
1977;SDS011;989;53.016;8.346;2024-02-21T02:01:44;20.50;;;8.00;;
1977;SDS011;989;53.016;8.346;2024-02-21T02:04:11;11.03;;;7.47;;
1977;SDS011;989;53.016;8.346;2024-02-21T02:06:37;8.63;;;6.63;;
1977;SDS011;989;53.016;8.346;2024-02-21T02:09:02;16.93;;;9.10;;
1977;SDS011;989;53.016;8.346;2024-02-21T02:11:28;13.43;;;7.20;;
1977;SDS011;989;53.016;8.346;2024-02-21T02:13:53;19.20;;;9.50;;
1977;SDS011;989;53.016;8.346;2024-02-21T02:16:19;13.10;;;8.30;;
1977;SDS011;989;53.016;8.346;2024-02-21T02:18:44;12.47;;;7.90;;
1977;SDS011;989;53.016;8.346;2024-02-21T02:21:10;12.13;;;7.87;;
1977;SDS011;989;53.016;8.346;2024-02-21T02:23:40;16.10;;;7.70;;
1977;SDS011;989;53.016;8.346;2024-02-21T02:26:06;17.27;;;7.97;;
1977;SDS011;989;53.016;8.346;2024-02-21T02:28:32;8.50;;;6.43;;
1977;SDS011;989;53.016;8.346;2024-02-21T02:30:58;17.27;;;8.80;;
1977;SDS011;989;53.016;8.346;2024-02-21T02:33:24;13.33;;;8.33;;
1977;SDS011;989;53.016;8.346;2024-02-21T02:35:50;14.27;;;7.27;;
1977;SDS011;989;53.016;8.346;2024-02-21T02:38:15;8.90;;;6.13;;
1977;SDS011;989;53.016;8.346;2024-02-21T02:40:41;11.97;;;7.73;;
1977;SDS011;989;53.016;8.346;2024-02-21T02:43:07;9.07;;;6.93;;
1977;SDS011;989;53.016;8.346;2024-02-21T02:45:32;12.87;;;7.10;;
1977;SDS011;989;53.016;8.346;2024-02-21T02:47:57;16.37;;;8.10;;
1977;SDS011;989;53.016;8.346;2024-02-21T02:50:23;16.03;;;9.63;;
1977;SDS011;989;53.016;8.346;2024-02-21T02:52:49;10.83;;;6.07;;
1977;SDS011;989;53.016;8.346;2024-02-21T02:55:14;16.17;;;9.33;;
1977;SDS011;989;53.016;8.346;2024-02-21T02:57:40;9.87;;;5.57;;
1977;SDS011;989;53.016;8.346;2024-02-21T03:00:08;9.50;;;6.27;;
1977;SDS011;989;53.016;8.346;2024-02-21T03:02:35;13.13;;;7.80;;
1977;SDS011;989;53.016;8.346;2024-02-21T03:05:02;10.20;;;6.43;;
1977;SDS011;989;53.016;8.346;2024-02-21T03:07:37;14.80;;;8.13;;
1977;SDS011;989;53.016;8.346;2024-02-21T03:10:02;15.03;;;7.80;;
1977;SDS011;989;53.016;8.346;2024-02-21T03:12:28;11.87;;;8.57;;
1977;SDS011;989;53.016;8.346;2024-02-21T03:14:54;17.43;;;7.90;;
1977;SDS011;989;53.016;8.346;2024-02-21T03:17:19;7.17;;;6.47;;
1977;SDS011;989;53.016;8.346;2024-02-21T03:19:45;13.23;;;7.77;;
1977;SDS011;989;53.016;8.346;2024-02-21T03:22:10;7.33;;;5.33;;
1977;SDS011;989;53.016;8.346;2024-02-21T03:24:36;9.23;;;7.27;;
1977;SDS011;989;53.016;8.346;2024-02-21T03:27:01;8.73;;;5.53;;
1977;SDS011;989;53.016;8.346;2024-02-21T03:29:27;8.70;;;6.57;;
1977;SDS011;989;53.016;8.346;2024-02-21T03:31:52;8.80;;;5.83;;
1977;SDS011;989;53.016;8.346;2024-02-21T03:34:17;7.60;;;6.20;;
1977;SDS011;989;53.016;8.346;2024-02-21T03:36:43;6.20;;;5.43;;
1977;SDS011;989;53.016;8.346;2024-02-21T03:39:08;7.10;;;5.80;;
1977;SDS011;989;53.016;8.346;2024-02-21T03:41:34;6.47;;;5.23;;
1977;SDS011;989;53.016;8.346;2024-02-21T03:44:00;4.97;;;4.57;;
1977;SDS011;989;53.016;8.346;2024-02-21T03:46:25;6.20;;;5.07;;
1977;SDS011;989;53.016;8.346;2024-02-21T03:48:51;5.17;;;3.90;;
1977;SDS011;989;53.016;8.346;2024-02-21T03:51:16;4.63;;;4.33;;
1977;SDS011;989;53.016;8.346;2024-02-21T03:53:42;4.87;;;4.40;;
1977;SDS011;989;53.016;8.346;2024-02-21T03:56:09;4.70;;;3.87;;
1977;SDS011;989;53.016;8.346;2024-02-21T03:58:34;9.90;;;5.17;;
1977;SDS011;989;53.016;8.346;2024-02-21T04:01:00;3.50;;;3.30;;
1977;SDS011;989;53.016;8.346;2024-02-21T04:03:26;5.03;;;4.20;;
1977;SDS011;989;53.016;8.346;2024-02-21T04:05:52;7.50;;;4.07;;
1977;SDS011;989;53.016;8.346;2024-02-21T04:08:17;4.47;;;3.90;;
1977;SDS011;989;53.016;8.346;2024-02-21T04:10:42;4.47;;;3.73;;
1977;SDS011;989;53.016;8.346;2024-02-21T04:13:08;3.60;;;3.27;;
1977;SDS011;989;53.016;8.346;2024-02-21T04:15:34;2.90;;;2.70;;
1977;SDS011;989;53.016;8.346;2024-02-21T04:18:00;3.40;;;3.10;;
1977;SDS011;989;53.016;8.346;2024-02-21T04:20:25;3.00;;;2.80;;
1977;SDS011;989;53.016;8.346;2024-02-21T04:22:51;2.60;;;2.50;;
1977;SDS011;989;53.016;8.346;2024-02-21T04:25:16;2.13;;;1.93;;
1977;SDS011;989;53.016;8.346;2024-02-21T04:27:41;2.23;;;2.17;;
1977;SDS011;989;53.016;8.346;2024-02-21T04:30:07;3.07;;;2.43;;
1977;SDS011;989;53.016;8.346;2024-02-21T04:32:33;1.90;;;1.80;;
1977;SDS011;989;53.016;8.346;2024-02-21T04:34:58;2.87;;;2.67;;
1977;SDS011;989;53.016;8.346;2024-02-21T04:37:24;3.00;;;2.80;;
1977;SDS011;989;53.016;8.346;2024-02-21T04:39:49;2.90;;;2.70;;
1977;SDS011;989;53.016;8.346;2024-02-21T04:42:15;3.50;;;2.60;;
1977;SDS011;989;53.016;8.346;2024-02-21T04:44:41;2.80;;;2.60;;
1977;SDS011;989;53.016;8.346;2024-02-21T04:47:06;2.73;;;2.53;;
1977;SDS011;989;53.016;8.346;2024-02-21T04:49:32;2.50;;;2.30;;
1977;SDS011;989;53.016;8.346;2024-02-21T04:51:57;2.47;;;2.37;;
1977;SDS011;989;53.016;8.346;2024-02-21T04:54:23;1.00;;;1.00;;
1977;SDS011;989;53.016;8.346;2024-02-21T04:56:48;2.20;;;2.10;;
1977;SDS011;989;53.016;8.346;2024-02-21T04:59:13;1.47;;;1.47;;
1977;SDS011;989;53.016;8.346;2024-02-21T05:01:39;1.80;;;1.70;;
1977;SDS011;989;53.016;8.346;2024-02-21T05:04:04;1.73;;;1.63;;
1977;SDS011;989;53.016;8.346;2024-02-21T05:06:29;1.30;;;1.30;;
1977;SDS011;989;53.016;8.346;2024-02-21T05:08:55;1.80;;;1.70;;
1977;SDS011;989;53.016;8.346;2024-02-21T05:11:21;2.10;;;2.00;;
1977;SDS011;989;53.016;8.346;2024-02-21T05:13:46;2.07;;;1.93;;
1977;SDS011;989;53.016;8.346;2024-02-21T05:16:12;1.40;;;1.40;;
1977;SDS011;989;53.016;8.346;2024-02-21T05:18:37;1.80;;;1.70;;
1977;SDS011;989;53.016;8.346;2024-02-21T05:21:02;1.40;;;1.30;;
1977;SDS011;989;53.016;8.346;2024-02-21T05:23:28;1.27;;;1.27;;
1977;SDS011;989;53.016;8.346;2024-02-21T05:25:53;1.40;;;1.30;;
1977;SDS011;989;53.016;8.346;2024-02-21T05:28:19;2.23;;;2.13;;
1977;SDS011;989;53.016;8.346;2024-02-21T05:30:44;2.30;;;2.20;;
1977;SDS011;989;53.016;8.346;2024-02-21T05:33:10;1.90;;;1.90;;
1977;SDS011;989;53.016;8.346;2024-02-21T05:35:36;1.67;;;1.60;;
1977;SDS011;989;53.016;8.346;2024-02-21T05:38:02;1.60;;;1.60;;
1977;SDS011;989;53.016;8.346;2024-02-21T05:40:31;1.57;;;1.57;;
1977;SDS011;989;53.016;8.346;2024-02-21T05:42:57;1.60;;;1.57;;
1977;SDS011;989;53.016;8.346;2024-02-21T05:45:22;1.60;;;1.60;;
1977;SDS011;989;53.016;8.346;2024-02-21T05:47:48;2.13;;;1.83;;
1977;SDS011;989;53.016;8.346;2024-02-21T05:50:13;1.00;;;1.00;;
1977;SDS011;989;53.016;8.346;2024-02-21T05:52:39;2.10;;;2.00;;
1977;SDS011;989;53.016;8.346;2024-02-21T05:55:06;2.10;;;2.00;;
1977;SDS011;989;53.016;8.346;2024-02-21T05:57:32;1.27;;;1.27;;
1977;SDS011;989;53.016;8.346;2024-02-21T05:59:57;1.90;;;1.90;;
1977;SDS011;989;53.016;8.346;2024-02-21T06:02:22;1.73;;;1.73;;
1977;SDS011;989;53.016;8.346;2024-02-21T06:04:48;2.00;;;1.90;;
1977;SDS011;989;53.016;8.346;2024-02-21T06:07:13;1.70;;;1.70;;
1977;SDS011;989;53.016;8.346;2024-02-21T06:09:38;2.13;;;2.03;;
1977;SDS011;989;53.016;8.346;2024-02-21T06:12:04;1.67;;;1.67;;
1977;SDS011;989;53.016;8.346;2024-02-21T06:14:29;1.90;;;1.83;;
1977;SDS011;989;53.016;8.346;2024-02-21T06:16:55;2.07;;;2.07;;
1977;SDS011;989;53.016;8.346;2024-02-21T06:19:20;5.90;;;2.77;;
1977;SDS011;989;53.016;8.346;2024-02-21T06:21:45;1.63;;;1.63;;
1977;SDS011;989;53.016;8.346;2024-02-21T06:24:11;2.60;;;2.40;;
1977;SDS011;989;53.016;8.346;2024-02-21T06:26:37;2.83;;;2.63;;
1977;SDS011;989;53.016;8.346;2024-02-21T06:29:03;3.10;;;2.90;;
1977;SDS011;989;53.016;8.346;2024-02-21T06:31:28;6.63;;;2.50;;
1977;SDS011;989;53.016;8.346;2024-02-21T06:33:54;3.03;;;2.77;;
1977;SDS011;989;53.016;8.346;2024-02-21T06:36:19;2.73;;;2.53;;
1977;SDS011;989;53.016;8.346;2024-02-21T06:38:44;3.03;;;2.83;;
1977;SDS011;989;53.016;8.346;2024-02-21T06:41:16;3.50;;;3.30;;
1977;SDS011;989;53.016;8.346;2024-02-21T06:43:43;2.37;;;2.27;;
1977;SDS011;989;53.016;8.346;2024-02-21T06:46:10;3.20;;;3.00;;
1977;SDS011;989;53.016;8.346;2024-02-21T06:48:35;2.53;;;2.43;;
1977;SDS011;989;53.016;8.346;2024-02-21T06:51:00;4.37;;;3.93;;
1977;SDS011;989;53.016;8.346;2024-02-21T06:53:28;3.03;;;2.73;;
1977;SDS011;989;53.016;8.346;2024-02-21T06:55:53;3.63;;;3.40;;
1977;SDS011;989;53.016;8.346;2024-02-21T06:58:19;3.20;;;2.90;;
1977;SDS011;989;53.016;8.346;2024-02-21T07:00:44;3.87;;;3.60;;
1977;SDS011;989;53.016;8.346;2024-02-21T07:03:10;3.40;;;3.20;;
1977;SDS011;989;53.016;8.346;2024-02-21T07:05:35;3.77;;;3.50;;
1977;SDS011;989;53.016;8.346;2024-02-21T07:08:01;2.30;;;2.20;;
1977;SDS011;989;53.016;8.346;2024-02-21T07:10:26;3.17;;;2.97;;
1977;SDS011;989;53.016;8.346;2024-02-21T07:12:54;5.03;;;4.30;;
1977;SDS011;989;53.016;8.346;2024-02-21T07:15:19;4.60;;;3.67;;
1977;SDS011;989;53.016;8.346;2024-02-21T07:17:44;2.90;;;2.73;;
1977;SDS011;989;53.016;8.346;2024-02-21T07:20:10;5.63;;;4.27;;
1977;SDS011;989;53.016;8.346;2024-02-21T07:22:35;3.40;;;3.10;;
1977;SDS011;989;53.016;8.346;2024-02-21T07:25:01;4.97;;;4.47;;
1977;SDS011;989;53.016;8.346;2024-02-21T07:27:26;4.90;;;4.40;;
1977;SDS011;989;53.016;8.346;2024-02-21T07:29:55;5.43;;;4.90;;
1977;SDS011;989;53.016;8.346;2024-02-21T07:32:21;4.60;;;4.30;;
1977;SDS011;989;53.016;8.346;2024-02-21T07:34:46;4.80;;;4.30;;
1977;SDS011;989;53.016;8.346;2024-02-21T07:37:11;5.30;;;4.73;;
1977;SDS011;989;53.016;8.346;2024-02-21T07:39:37;5.67;;;4.60;;
1977;SDS011;989;53.016;8.346;2024-02-21T07:42:02;6.37;;;4.77;;
1977;SDS011;989;53.016;8.346;2024-02-21T07:44:28;9.00;;;4.87;;
1977;SDS011;989;53.016;8.346;2024-02-21T07:46:53;8.20;;;5.80;;
1977;SDS011;989;53.016;8.346;2024-02-21T07:49:19;5.70;;;4.40;;
1977;SDS011;989;53.016;8.346;2024-02-21T07:51:44;5.33;;;4.47;;
1977;SDS011;989;53.016;8.346;2024-02-21T07:54:09;11.30;;;6.53;;
1977;SDS011;989;53.016;8.346;2024-02-21T07:56:35;9.80;;;6.40;;
1977;SDS011;989;53.016;8.346;2024-02-21T07:59:00;11.17;;;8.10;;
1977;SDS011;989;53.016;8.346;2024-02-21T08:01:25;22.73;;;8.93;;
1977;SDS011;989;53.016;8.346;2024-02-21T08:03:51;9.93;;;7.00;;
1977;SDS011;989;53.016;8.346;2024-02-21T08:06:16;11.03;;;6.70;;
1977;SDS011;989;53.016;8.346;2024-02-21T08:08:42;7.23;;;6.47;;
1977;SDS011;989;53.016;8.346;2024-02-21T08:11:07;9.00;;;6.50;;
1977;SDS011;989;53.016;8.346;2024-02-21T08:13:32;8.87;;;6.23;;
1977;SDS011;989;53.016;8.346;2024-02-21T08:15:58;9.20;;;5.73;;
1977;SDS011;989;53.016;8.346;2024-02-21T08:18:23;10.20;;;5.90;;
1977;SDS011;989;53.016;8.346;2024-02-21T08:20:49;10.23;;;6.33;;
1977;SDS011;989;53.016;8.346;2024-02-21T08:23:18;5.93;;;5.33;;
1977;SDS011;989;53.016;8.346;2024-02-21T08:25:43;8.70;;;5.30;;
1977;SDS011;989;53.016;8.346;2024-02-21T08:28:09;8.33;;;6.00;;
1977;SDS011;989;53.016;8.346;2024-02-21T08:30:34;7.63;;;5.37;;
1977;SDS011;989;53.016;8.346;2024-02-21T08:33:00;13.83;;;5.73;;
1977;SDS011;989;53.016;8.346;2024-02-21T08:35:25;11.07;;;6.17;;
1977;SDS011;989;53.016;8.346;2024-02-21T08:37:50;6.20;;;5.60;;
1977;SDS011;989;53.016;8.346;2024-02-21T08:40:16;10.20;;;5.53;;
1977;SDS011;989;53.016;8.346;2024-02-21T08:42:46;6.40;;;5.80;;
1977;SDS011;989;53.016;8.346;2024-02-21T08:45:13;13.33;;;6.63;;
1977;SDS011;989;53.016;8.346;2024-02-21T08:47:41;9.93;;;6.70;;
1977;SDS011;989;53.016;8.346;2024-02-21T08:50:07;7.63;;;6.17;;
1977;SDS011;989;53.016;8.346;2024-02-21T08:52:34;5.10;;;4.60;;
1977;SDS011;989;53.016;8.346;2024-02-21T08:55:00;7.20;;;5.90;;
1977;SDS011;989;53.016;8.346;2024-02-21T08:57:27;6.00;;;5.10;;
1977;SDS011;989;53.016;8.346;2024-02-21T08:59:52;10.70;;;7.03;;
1977;SDS011;989;53.016;8.346;2024-02-21T09:02:17;10.70;;;6.40;;
1977;SDS011;989;53.016;8.346;2024-02-21T09:04:43;7.17;;;6.10;;
1977;SDS011;989;53.016;8.346;2024-02-21T09:07:09;8.73;;;6.70;;
1977;SDS011;989;53.016;8.346;2024-02-21T09:09:36;9.33;;;5.60;;
1977;SDS011;989;53.016;8.346;2024-02-21T09:12:03;11.23;;;6.97;;
1977;SDS011;989;53.016;8.346;2024-02-21T09:14:32;7.83;;;6.20;;
1977;SDS011;989;53.016;8.346;2024-02-21T09:16:58;9.73;;;6.57;;
1977;SDS011;989;53.016;8.346;2024-02-21T09:19:23;10.70;;;7.20;;
1977;SDS011;989;53.016;8.346;2024-02-21T09:21:49;8.77;;;6.50;;
1977;SDS011;989;53.016;8.346;2024-02-21T09:24:14;9.27;;;6.90;;
1977;SDS011;989;53.016;8.346;2024-02-21T09:26:39;9.63;;;6.43;;
1977;SDS011;989;53.016;8.346;2024-02-21T09:29:05;12.63;;;6.37;;
1977;SDS011;989;53.016;8.346;2024-02-21T09:31:30;10.33;;;6.07;;
1977;SDS011;989;53.016;8.346;2024-02-21T09:33:56;8.90;;;6.10;;
1977;SDS011;989;53.016;8.346;2024-02-21T09:36:21;8.83;;;7.07;;
1977;SDS011;989;53.016;8.346;2024-02-21T09:38:47;8.60;;;6.70;;
1977;SDS011;989;53.016;8.346;2024-02-21T09:43:42;17.17;;;7.67;;
1977;SDS011;989;53.016;8.346;2024-02-21T09:46:12;8.97;;;6.40;;
1977;SDS011;989;53.016;8.346;2024-02-21T09:49:09;12.13;;;6.37;;
1977;SDS011;989;53.016;8.346;2024-02-21T09:51:59;13.40;;;7.50;;
1977;SDS011;989;53.016;8.346;2024-02-21T09:54:26;13.73;;;8.03;;
1977;SDS011;989;53.016;8.346;2024-02-21T09:56:53;11.00;;;8.30;;
1977;SDS011;989;53.016;8.346;2024-02-21T09:59:18;15.33;;;8.40;;
1977;SDS011;989;53.016;8.346;2024-02-21T10:01:44;19.20;;;8.67;;
1977;SDS011;989;53.016;8.346;2024-02-21T10:04:09;12.43;;;8.10;;
1977;SDS011;989;53.016;8.346;2024-02-21T10:06:35;16.53;;;8.57;;
1977;SDS011;989;53.016;8.346;2024-02-21T10:09:02;14.53;;;9.67;;
1977;SDS011;989;53.016;8.346;2024-02-21T10:11:29;11.17;;;8.10;;
1977;SDS011;989;53.016;8.346;2024-02-21T10:14:06;10.53;;;7.53;;
1977;SDS011;989;53.016;8.346;2024-02-21T10:16:33;13.90;;;8.50;;
1977;SDS011;989;53.016;8.346;2024-02-21T10:18:59;10.53;;;7.87;;
1977;SDS011;989;53.016;8.346;2024-02-21T10:21:25;11.70;;;8.43;;
1977;SDS011;989;53.016;8.346;2024-02-21T10:23:50;18.10;;;9.63;;
1977;SDS011;989;53.016;8.346;2024-02-21T10:26:20;11.73;;;8.00;;
1977;SDS011;989;53.016;8.346;2024-02-21T10:28:49;12.17;;;7.30;;
1977;SDS011;989;53.016;8.346;2024-02-21T10:34:01;10.20;;;6.83;;
1977;SDS011;989;53.016;8.346;2024-02-21T10:36:30;14.73;;;8.10;;
1977;SDS011;989;53.016;8.346;2024-02-21T10:38:56;16.70;;;7.70;;
1977;SDS011;989;53.016;8.346;2024-02-21T10:41:22;14.27;;;8.03;;
1977;SDS011;989;53.016;8.346;2024-02-21T10:43:52;9.23;;;6.20;;
1977;SDS011;989;53.016;8.346;2024-02-21T10:46:19;11.03;;;7.67;;
1977;SDS011;989;53.016;8.346;2024-02-21T10:48:45;8.87;;;6.63;;
1977;SDS011;989;53.016;8.346;2024-02-21T10:51:18;9.10;;;6.17;;
1977;SDS011;989;53.016;8.346;2024-02-21T10:56:29;12.90;;;7.70;;
1977;SDS011;989;53.016;8.346;2024-02-21T10:59:00;9.10;;;6.77;;
1977;SDS011;989;53.016;8.346;2024-02-21T11:01:27;13.07;;;7.63;;
1977;SDS011;989;53.016;8.346;2024-02-21T11:03:57;14.73;;;7.37;;
1977;SDS011;989;53.016;8.346;2024-02-21T11:06:23;10.37;;;5.10;;
1977;SDS011;989;53.016;8.346;2024-02-21T11:09:02;21.63;;;10.27;;
1977;SDS011;989;53.016;8.346;2024-02-21T11:11:29;14.53;;;7.10;;
1977;SDS011;989;53.016;8.346;2024-02-21T11:14:06;10.20;;;6.20;;
1977;SDS011;989;53.016;8.346;2024-02-21T11:16:35;8.77;;;5.90;;
1977;SDS011;989;53.016;8.346;2024-02-21T11:19:21;12.97;;;8.00;;
1977;SDS011;989;53.016;8.346;2024-02-21T11:21:47;11.80;;;6.50;;
1977;SDS011;989;53.016;8.346;2024-02-21T11:24:13;12.23;;;6.70;;
1977;SDS011;989;53.016;8.346;2024-02-21T11:26:39;13.97;;;6.07;;
1977;SDS011;989;53.016;8.346;2024-02-21T11:29:05;17.13;;;5.20;;
1977;SDS011;989;53.016;8.346;2024-02-21T11:31:40;11.47;;;6.40;;
1977;SDS011;989;53.016;8.346;2024-02-21T11:34:10;13.73;;;6.07;;
1977;SDS011;989;53.016;8.346;2024-02-21T11:36:36;7.73;;;4.90;;
1977;SDS011;989;53.016;8.346;2024-02-21T11:39:11;14.10;;;6.00;;
1977;SDS011;989;53.016;8.346;2024-02-21T11:41:36;9.10;;;5.17;;
1977;SDS011;989;53.016;8.346;2024-02-21T11:44:02;17.20;;;6.93;;
1977;SDS011;989;53.016;8.346;2024-02-21T11:46:28;8.50;;;5.00;;
1977;SDS011;989;53.016;8.346;2024-02-21T11:48:54;20.57;;;6.03;;
1977;SDS011;989;53.016;8.346;2024-02-21T11:51:21;8.30;;;4.63;;
1977;SDS011;989;53.016;8.346;2024-02-21T11:53:48;11.17;;;4.87;;
1977;SDS011;989;53.016;8.346;2024-02-21T11:56:13;13.03;;;5.50;;
1977;SDS011;989;53.016;8.346;2024-02-21T11:58:39;11.07;;;5.27;;
1977;SDS011;989;53.016;8.346;2024-02-21T12:01:04;11.70;;;4.57;;
1977;SDS011;989;53.016;8.346;2024-02-21T12:03:32;7.60;;;3.90;;
1977;SDS011;989;53.016;8.346;2024-02-21T12:05:59;7.80;;;4.60;;
1977;SDS011;989;53.016;8.346;2024-02-21T12:08:24;11.00;;;4.03;;
1977;SDS011;989;53.016;8.346;2024-02-21T12:10:50;8.83;;;4.73;;
1977;SDS011;989;53.016;8.346;2024-02-21T12:13:16;14.40;;;5.00;;
1977;SDS011;989;53.016;8.346;2024-02-21T12:15:41;8.10;;;4.57;;
1977;SDS011;989;53.016;8.346;2024-02-21T12:18:12;12.20;;;5.03;;
1977;SDS011;989;53.016;8.346;2024-02-21T12:20:38;8.13;;;4.60;;
1977;SDS011;989;53.016;8.346;2024-02-21T12:23:08;14.03;;;5.97;;
1977;SDS011;989;53.016;8.346;2024-02-21T12:25:34;6.90;;;4.33;;
1977;SDS011;989;53.016;8.346;2024-02-21T12:27:59;11.40;;;4.27;;
1977;SDS011;989;53.016;8.346;2024-02-21T12:30:25;14.93;;;4.83;;
1977;SDS011;989;53.016;8.346;2024-02-21T12:32:51;13.23;;;4.73;;
1977;SDS011;989;53.016;8.346;2024-02-21T12:35:17;6.97;;;4.00;;
1977;SDS011;989;53.016;8.346;2024-02-21T12:37:42;5.30;;;3.73;;
1977;SDS011;989;53.016;8.346;2024-02-21T12:40:08;13.17;;;4.30;;
1977;SDS011;989;53.016;8.346;2024-02-21T12:42:34;6.57;;;4.07;;
1977;SDS011;989;53.016;8.346;2024-02-21T12:44:59;9.60;;;3.97;;
1977;SDS011;989;53.016;8.346;2024-02-21T12:47:25;11.00;;;4.00;;
1977;SDS011;989;53.016;8.346;2024-02-21T12:49:52;11.20;;;4.83;;
1977;SDS011;989;53.016;8.346;2024-02-21T12:52:17;12.70;;;4.53;;
1977;SDS011;989;53.016;8.346;2024-02-21T12:54:43;9.43;;;3.97;;
1977;SDS011;989;53.016;8.346;2024-02-21T12:57:08;16.23;;;4.80;;
1977;SDS011;989;53.016;8.346;2024-02-21T12:59:33;5.70;;;3.63;;
1977;SDS011;989;53.016;8.346;2024-02-21T13:01:59;10.57;;;4.70;;
1977;SDS011;989;53.016;8.346;2024-02-21T13:04:24;8.97;;;4.70;;
1977;SDS011;989;53.016;8.346;2024-02-21T13:06:49;10.70;;;5.10;;
1977;SDS011;989;53.016;8.346;2024-02-21T13:09:15;7.60;;;4.20;;
1977;SDS011;989;53.016;8.346;2024-02-21T13:11:40;9.43;;;4.97;;
1977;SDS011;989;53.016;8.346;2024-02-21T13:14:06;9.17;;;4.67;;
1977;SDS011;989;53.016;8.346;2024-02-21T13:16:32;6.43;;;3.90;;
1977;SDS011;989;53.016;8.346;2024-02-21T13:19:04;8.07;;;4.43;;
1977;SDS011;989;53.016;8.346;2024-02-21T13:21:29;6.97;;;4.27;;
1977;SDS011;989;53.016;8.346;2024-02-21T13:23:55;10.43;;;5.17;;
1977;SDS011;989;53.016;8.346;2024-02-21T13:26:21;10.13;;;4.87;;
1977;SDS011;989;53.016;8.346;2024-02-21T13:28:46;9.83;;;4.90;;
1977;SDS011;989;53.016;8.346;2024-02-21T13:31:14;7.30;;;4.40;;
1977;SDS011;989;53.016;8.346;2024-02-21T13:33:41;7.37;;;5.17;;
1977;SDS011;989;53.016;8.346;2024-02-21T13:36:07;12.37;;;5.20;;
1977;SDS011;989;53.016;8.346;2024-02-21T13:38:32;9.73;;;5.50;;
1977;SDS011;989;53.016;8.346;2024-02-21T13:40:57;8.30;;;6.00;;
1977;SDS011;989;53.016;8.346;2024-02-21T13:43:25;7.30;;;5.70;;
1977;SDS011;989;53.016;8.346;2024-02-21T13:45:56;15.50;;;6.30;;
1977;SDS011;989;53.016;8.346;2024-02-21T13:48:26;10.93;;;6.30;;
1977;SDS011;989;53.016;8.346;2024-02-21T13:50:55;8.80;;;6.97;;
1977;SDS011;989;53.016;8.346;2024-02-21T13:53:20;18.20;;;8.40;;
1977;SDS011;989;53.016;8.346;2024-02-21T13:55:47;12.00;;;7.70;;
1977;SDS011;989;53.016;8.346;2024-02-21T13:58:13;10.90;;;7.83;;
1977;SDS011;989;53.016;8.346;2024-02-21T14:00:39;15.37;;;8.50;;
1977;SDS011;989;53.016;8.346;2024-02-21T14:03:04;16.00;;;7.73;;
1977;SDS011;989;53.016;8.346;2024-02-21T14:05:30;13.67;;;7.37;;
1977;SDS011;989;53.016;8.346;2024-02-21T14:08:00;15.00;;;7.60;;
1977;SDS011;989;53.016;8.346;2024-02-21T14:10:26;13.63;;;8.33;;
1977;SDS011;989;53.016;8.346;2024-02-21T14:12:51;14.63;;;9.10;;
1977;SDS011;989;53.016;8.346;2024-02-21T14:15:17;14.33;;;9.27;;
1977;SDS011;989;53.016;8.346;2024-02-21T14:17:42;12.57;;;8.50;;
1977;SDS011;989;53.016;8.346;2024-02-21T14:20:08;12.30;;;8.87;;
1977;SDS011;989;53.016;8.346;2024-02-21T14:22:34;8.27;;;6.70;;
1977;SDS011;989;53.016;8.346;2024-02-21T14:25:00;10.20;;;7.43;;
1977;SDS011;989;53.016;8.346;2024-02-21T14:27:25;12.00;;;7.87;;
1977;SDS011;989;53.016;8.346;2024-02-21T14:29:51;11.63;;;7.97;;
1977;SDS011;989;53.016;8.346;2024-02-21T14:32:16;11.00;;;7.87;;
1977;SDS011;989;53.016;8.346;2024-02-21T14:34:41;11.03;;;6.70;;
1977;SDS011;989;53.016;8.346;2024-02-21T14:37:07;13.03;;;6.90;;
1977;SDS011;989;53.016;8.346;2024-02-21T14:39:32;16.00;;;6.60;;
1977;SDS011;989;53.016;8.346;2024-02-21T14:42:00;10.00;;;7.77;;
1977;SDS011;989;53.016;8.346;2024-02-21T14:44:26;17.67;;;6.87;;
1977;SDS011;989;53.016;8.346;2024-02-21T14:46:52;24.80;;;7.90;;
1977;SDS011;989;53.016;8.346;2024-02-21T14:49:17;7.00;;;5.30;;
1977;SDS011;989;53.016;8.346;2024-02-21T14:51:44;7.17;;;5.40;;
1977;SDS011;989;53.016;8.346;2024-02-21T14:54:10;12.90;;;5.97;;
1977;SDS011;989;53.016;8.346;2024-02-21T14:56:36;10.50;;;5.57;;
1977;SDS011;989;53.016;8.346;2024-02-21T14:59:04;12.60;;;6.37;;
1977;SDS011;989;53.016;8.346;2024-02-21T15:01:30;8.57;;;5.03;;
1977;SDS011;989;53.016;8.346;2024-02-21T15:03:57;8.83;;;5.13;;
1977;SDS011;989;53.016;8.346;2024-02-21T15:06:26;9.10;;;4.90;;
1977;SDS011;989;53.016;8.346;2024-02-21T15:08:51;10.43;;;5.90;;
1977;SDS011;989;53.016;8.346;2024-02-21T15:11:17;7.07;;;5.73;;
1977;SDS011;989;53.016;8.346;2024-02-21T15:13:43;9.63;;;6.27;;
1977;SDS011;989;53.016;8.346;2024-02-21T15:16:08;7.50;;;4.70;;
1977;SDS011;989;53.016;8.346;2024-02-21T15:18:33;10.33;;;5.43;;
1977;SDS011;989;53.016;8.346;2024-02-21T15:21:01;6.53;;;4.27;;
1977;SDS011;989;53.016;8.346;2024-02-21T15:23:26;6.63;;;4.43;;